sensor_id;sensor_type;location;lat;lon;timestamp;pressure;altitude;pressure_sealevel;temperature;humidity
25526;BME280;13424;48.424;11.258;2022-08-30T00:02:41;95881.16;;;19.39;74.91
25526;BME280;13424;48.424;11.258;2022-08-30T00:05:09;95888.59;;;19.52;74.20
25526;BME280;13424;48.424;11.258;2022-08-30T00:07:35;95884.22;;;19.32;74.77
25526;BME280;13424;48.424;11.258;2022-08-30T00:10:02;95893.28;;;19.17;75.03
25526;BME280;13424;48.424;11.258;2022-08-30T00:12:29;95885.25;;;19.12;75.33
25526;BME280;13424;48.424;11.258;2022-08-30T00:14:57;95883.53;;;19.21;75.31
25526;BME280;13424;48.424;11.258;2022-08-30T00:17:24;95880.28;;;19.19;75.07
25526;BME280;13424;48.424;11.258;2022-08-30T00:19:50;95883.22;;;18.99;75.55
25526;BME280;13424;48.424;11.258;2022-08-30T00:22:16;95882.72;;;18.97;75.86
25526;BME280;13424;48.424;11.258;2022-08-30T00:24:42;95883.81;;;18.96;75.77
25526;BME280;13424;48.424;11.258;2022-08-30T00:27:08;95885.06;;;18.75;77.14
25526;BME280;13424;48.424;11.258;2022-08-30T00:29:34;95884.66;;;18.91;75.91
25526;BME280;13424;48.424;11.258;2022-08-30T00:32:00;95892.78;;;18.86;76.55
25526;BME280;13424;48.424;11.258;2022-08-30T00:35:24;95889.63;;;18.79;77.88
25526;BME280;13424;48.424;11.258;2022-08-30T00:37:50;95886.59;;;18.86;77.09
25526;BME280;13424;48.424;11.258;2022-08-30T00:40:19;95888.19;;;18.87;76.96
25526;BME280;13424;48.424;11.258;2022-08-30T00:42:47;95886.97;;;18.74;77.57
25526;BME280;13424;48.424;11.258;2022-08-30T00:45:24;95881.78;;;18.78;77.11
25526;BME280;13424;48.424;11.258;2022-08-30T00:47:51;95891.00;;;18.77;77.26
25526;BME280;13424;48.424;11.258;2022-08-30T00:50:22;95885.06;;;18.75;77.37
25526;BME280;13424;48.424;11.258;2022-08-30T00:52:54;95880.47;;;18.75;77.12
25526;BME280;13424;48.424;11.258;2022-08-30T00:55:21;95883.72;;;18.72;76.70
25526;BME280;13424;48.424;11.258;2022-08-30T00:57:53;95890.81;;;18.68;76.82
25526;BME280;13424;48.424;11.258;2022-08-30T01:00:21;95885.69;;;18.66;77.28
25526;BME280;13424;48.424;11.258;2022-08-30T01:02:47;95885.41;;;18.63;77.13
25526;BME280;13424;48.424;11.258;2022-08-30T01:05:13;95880.31;;;18.56;77.58
25526;BME280;13424;48.424;11.258;2022-08-30T01:11:33;95881.38;;;18.60;77.17
25526;BME280;13424;48.424;11.258;2022-08-30T01:14:01;95878.19;;;18.53;77.49
25526;BME280;13424;48.424;11.258;2022-08-30T01:16:31;95888.03;;;18.39;78.17
25526;BME280;13424;48.424;11.258;2022-08-30T01:18:59;95880.38;;;18.17;79.56
25526;BME280;13424;48.424;11.258;2022-08-30T01:21:48;95877.16;;;17.71;79.78
25526;BME280;13424;48.424;11.258;2022-08-30T01:24:17;95882.06;;;17.43;80.61
25526;BME280;13424;48.424;11.258;2022-08-30T01:26:43;95879.84;;;17.61;79.73
25526;BME280;13424;48.424;11.258;2022-08-30T01:29:16;95883.97;;;17.48;80.29
25526;BME280;13424;48.424;11.258;2022-08-30T01:31:43;95882.13;;;17.33;80.60
25526;BME280;13424;48.424;11.258;2022-08-30T01:34:09;95877.81;;;17.27;80.65
25526;BME280;13424;48.424;11.258;2022-08-30T01:36:37;95871.34;;;17.28;80.72
25526;BME280;13424;48.424;11.258;2022-08-30T01:39:05;95871.34;;;17.33;80.86
25526;BME280;13424;48.424;11.258;2022-08-30T01:41:34;95868.66;;;17.33;81.38
25526;BME280;13424;48.424;11.258;2022-08-30T01:44:09;95864.81;;;17.44;81.28
25526;BME280;13424;48.424;11.258;2022-08-30T01:46:43;95865.03;;;17.53;81.18
25526;BME280;13424;48.424;11.258;2022-08-30T01:49:15;95870.66;;;17.67;80.76
25526;BME280;13424;48.424;11.258;2022-08-30T01:51:42;95861.91;;;17.95;79.97
25526;BME280;13424;48.424;11.258;2022-08-30T01:54:09;95864.09;;;17.88;79.37
25526;BME280;13424;48.424;11.258;2022-08-30T01:57:48;95870.06;;;17.80;80.52
25526;BME280;13424;48.424;11.258;2022-08-30T02:00:16;95867.84;;;17.92;80.48
25526;BME280;13424;48.424;11.258;2022-08-30T02:02:42;95868.91;;;17.96;80.06
25526;BME280;13424;48.424;11.258;2022-08-30T02:05:09;95870.00;;;17.95;80.21
25526;BME280;13424;48.424;11.258;2022-08-30T02:07:44;95875.91;;;17.97;80.00
25526;BME280;13424;48.424;11.258;2022-08-30T02:10:11;95882.03;;;18.08;79.13
25526;BME280;13424;48.424;11.258;2022-08-30T02:12:37;95873.56;;;17.85;79.58
25526;BME280;13424;48.424;11.258;2022-08-30T02:15:04;95878.75;;;17.72;79.75
25526;BME280;13424;48.424;11.258;2022-08-30T02:18:22;95877.47;;;17.54;80.07
25526;BME280;13424;48.424;11.258;2022-08-30T02:20:49;95880.75;;;17.46;80.15
25526;BME280;13424;48.424;11.258;2022-08-30T02:23:15;95884.84;;;17.23;80.56
25526;BME280;13424;48.424;11.258;2022-08-30T02:25:42;95881.03;;;17.39;80.38
25526;BME280;13424;48.424;11.258;2022-08-30T02:28:09;95875.88;;;17.48;80.77
25526;BME280;13424;48.424;11.258;2022-08-30T02:30:35;95872.31;;;17.52;79.96
25526;BME280;13424;48.424;11.258;2022-08-30T02:33:01;95871.84;;;17.40;80.45
25526;BME280;13424;48.424;11.258;2022-08-30T02:35:28;95872.94;;;17.34;80.14
25526;BME280;13424;48.424;11.258;2022-08-30T02:37:54;95873.44;;;17.46;80.90
25526;BME280;13424;48.424;11.258;2022-08-30T02:40:20;95869.09;;;17.55;80.77
25526;BME280;13424;48.424;11.258;2022-08-30T02:42:47;95868.53;;;17.58;80.69
25526;BME280;13424;48.424;11.258;2022-08-30T02:46:04;95872.56;;;17.61;81.09
25526;BME280;13424;48.424;11.258;2022-08-30T02:48:30;95871.22;;;17.58;81.52
25526;BME280;13424;48.424;11.258;2022-08-30T02:51:05;95875.53;;;17.65;80.77
25526;BME280;13424;48.424;11.258;2022-08-30T02:53:32;95871.75;;;17.71;80.89
25526;BME280;13424;48.424;11.258;2022-08-30T02:55:58;95869.28;;;17.74;80.65
25526;BME280;13424;48.424;11.258;2022-08-30T02:58:33;95869.00;;;17.76;80.97
25526;BME280;13424;48.424;11.258;2022-08-30T03:00:59;95859.72;;;17.97;80.10
25526;BME280;13424;48.424;11.258;2022-08-30T03:03:26;95864.53;;;18.00;80.15
25526;BME280;13424;48.424;11.258;2022-08-30T03:05:52;95861.81;;;18.05;79.70
25526;BME280;13424;48.424;11.258;2022-08-30T03:08:18;95870.44;;;18.07;79.83
25526;BME280;13424;48.424;11.258;2022-08-30T03:10:44;95870.97;;;18.09;79.31
25526;BME280;13424;48.424;11.258;2022-08-30T03:13:10;95873.19;;;18.02;79.61
25526;BME280;13424;48.424;11.258;2022-08-30T03:15:38;95874.88;;;17.93;80.88
25526;BME280;13424;48.424;11.258;2022-08-30T03:18:05;95869.63;;;17.52;82.08
25526;BME280;13424;48.424;11.258;2022-08-30T03:20:32;95871.56;;;17.42;82.29
25526;BME280;13424;48.424;11.258;2022-08-30T03:23:01;95874.31;;;17.26;82.46
25526;BME280;13424;48.424;11.258;2022-08-30T03:25:26;95865.38;;;17.36;81.76
25526;BME280;13424;48.424;11.258;2022-08-30T03:27:52;95868.03;;;17.51;81.08
25526;BME280;13424;48.424;11.258;2022-08-30T03:30:19;95866.00;;;17.23;82.19
25526;BME280;13424;48.424;11.258;2022-08-30T03:32:46;95868.38;;;17.35;81.53
25526;BME280;13424;48.424;11.258;2022-08-30T03:35:14;95874.50;;;17.50;80.85
25526;BME280;13424;48.424;11.258;2022-08-30T03:37:40;95875.06;;;17.42;80.89
25526;BME280;13424;48.424;11.258;2022-08-30T03:40:09;95869.44;;;17.39;81.17
25526;BME280;13424;48.424;11.258;2022-08-30T03:42:36;95861.91;;;17.30;81.73
25526;BME280;13424;48.424;11.258;2022-08-30T03:45:04;95859.53;;;17.19;82.03
25526;BME280;13424;48.424;11.258;2022-08-30T03:47:30;95866.56;;;17.15;81.94
25526;BME280;13424;48.424;11.258;2022-08-30T03:49:56;95864.06;;;17.28;81.03
25526;BME280;13424;48.424;11.258;2022-08-30T03:52:22;95865.66;;;17.35;81.33
25526;BME280;13424;48.424;11.258;2022-08-30T03:54:48;95864.03;;;17.39;81.38
25526;BME280;13424;48.424;11.258;2022-08-30T03:57:15;95855.72;;;17.30;80.51
25526;BME280;13424;48.424;11.258;2022-08-30T03:59:41;95863.25;;;17.28;80.47
25526;BME280;13424;48.424;11.258;2022-08-30T04:02:07;95862.22;;;17.19;80.95
25526;BME280;13424;48.424;11.258;2022-08-30T04:05:11;95865.44;;;17.21;80.59
25526;BME280;13424;48.424;11.258;2022-08-30T04:07:38;95866.25;;;17.26;80.48
25526;BME280;13424;48.424;11.258;2022-08-30T04:10:08;95879.66;;;17.37;81.16
25526;BME280;13424;48.424;11.258;2022-08-30T04:12:35;95874.78;;;17.44;81.15
25526;BME280;13424;48.424;11.258;2022-08-30T04:15:02;95876.72;;;17.33;80.67
25526;BME280;13424;48.424;11.258;2022-08-30T04:17:28;95880.81;;;17.25;80.79
25526;BME280;13424;48.424;11.258;2022-08-30T04:19:54;95883.25;;;17.17;80.93
25526;BME280;13424;48.424;11.258;2022-08-30T04:22:20;95886.75;;;17.22;81.04
25526;BME280;13424;48.424;11.258;2022-08-30T04:24:46;95886.72;;;17.27;80.30
25526;BME280;13424;48.424;11.258;2022-08-30T04:30:56;95888.88;;;17.25;81.53
25526;BME280;13424;48.424;11.258;2022-08-30T04:33:34;95889.41;;;17.27;81.19
25526;BME280;13424;48.424;11.258;2022-08-30T04:36:03;95884.81;;;17.28;82.31
25526;BME280;13424;48.424;11.258;2022-08-30T04:38:31;95904.16;;;17.45;81.49
25526;BME280;13424;48.424;11.258;2022-08-30T04:40:58;95893.66;;;17.44;81.27
25526;BME280;13424;48.424;11.258;2022-08-30T04:43:25;95900.09;;;17.53;81.48
25526;BME280;13424;48.424;11.258;2022-08-30T04:45:53;95900.75;;;17.24;83.00
25526;BME280;13424;48.424;11.258;2022-08-30T04:48:21;95910.94;;;17.38;82.67
25526;BME280;13424;48.424;11.258;2022-08-30T04:50:47;95914.94;;;17.45;82.59
25526;BME280;13424;48.424;11.258;2022-08-30T04:53:14;95901.69;;;17.64;81.85
25526;BME280;13424;48.424;11.258;2022-08-30T04:55:43;95904.44;;;17.54;82.59
25526;BME280;13424;48.424;11.258;2022-08-30T04:58:10;95913.28;;;17.59;82.71
25526;BME280;13424;48.424;11.258;2022-08-30T05:00:36;95911.63;;;17.69;82.53
25526;BME280;13424;48.424;11.258;2022-08-30T05:03:03;95911.16;;;17.62;82.40
25526;BME280;13424;48.424;11.258;2022-08-30T05:05:29;95914.16;;;17.45;84.12
25526;BME280;13424;48.424;11.258;2022-08-30T05:11:46;95918.66;;;17.65;85.40
25526;BME280;13424;48.424;11.258;2022-08-30T05:14:12;95922.66;;;17.82;85.24
25526;BME280;13424;48.424;11.258;2022-08-30T05:16:39;95919.06;;;18.02;84.61
25526;BME280;13424;48.424;11.258;2022-08-30T05:19:06;95924.97;;;18.04;84.65
25526;BME280;13424;48.424;11.258;2022-08-30T05:21:35;95924.97;;;18.09;84.89
25526;BME280;13424;48.424;11.258;2022-08-30T05:24:02;95917.59;;;18.20;84.81
25526;BME280;13424;48.424;11.258;2022-08-30T05:26:32;95931.06;;;18.64;83.59
25526;BME280;13424;48.424;11.258;2022-08-30T05:28:59;95935.56;;;19.08;82.08
25526;BME280;13424;48.424;11.258;2022-08-30T05:32:35;95927.88;;;19.20;80.62
25526;BME280;13424;48.424;11.258;2022-08-30T05:35:03;95932.72;;;19.23;80.66
25526;BME280;13424;48.424;11.258;2022-08-30T05:37:29;95938.59;;;18.73;83.03
25526;BME280;13424;48.424;11.258;2022-08-30T05:39:55;95936.91;;;19.35;80.26
25526;BME280;13424;48.424;11.258;2022-08-30T05:42:22;95941.41;;;19.20;80.50
25526;BME280;13424;48.424;11.258;2022-08-30T05:44:53;95946.59;;;18.83;81.17
25526;BME280;13424;48.424;11.258;2022-08-30T05:47:19;95944.41;;;18.85;79.99
25526;BME280;13424;48.424;11.258;2022-08-30T05:49:46;95953.84;;;18.87;79.36
25526;BME280;13424;48.424;11.258;2022-08-30T05:52:14;95958.31;;;19.02;79.11
25526;BME280;13424;48.424;11.258;2022-08-30T05:54:44;95954.38;;;19.18;78.34
25526;BME280;13424;48.424;11.258;2022-08-30T05:57:11;95955.28;;;19.09;79.03
25526;BME280;13424;48.424;11.258;2022-08-30T06:00:42;95953.84;;;19.21;78.98
25526;BME280;13424;48.424;11.258;2022-08-30T06:03:08;95951.75;;;19.13;80.03
25526;BME280;13424;48.424;11.258;2022-08-30T06:05:48;95944.50;;;19.33;80.63
25526;BME280;13424;48.424;11.258;2022-08-30T06:08:19;95941.06;;;19.51;80.46
25526;BME280;13424;48.424;11.258;2022-08-30T06:10:45;95948.00;;;20.05;79.12
25526;BME280;13424;48.424;11.258;2022-08-30T06:13:13;95949.47;;;19.97;78.95
25526;BME280;13424;48.424;11.258;2022-08-30T06:15:40;95952.16;;;19.78;80.58
25526;BME280;13424;48.424;11.258;2022-08-30T06:18:12;95941.69;;;20.52;77.90
25526;BME280;13424;48.424;11.258;2022-08-30T06:20:44;95943.19;;;20.77;77.45
25526;BME280;13424;48.424;11.258;2022-08-30T06:23:13;95950.50;;;20.63;79.43
25526;BME280;13424;48.424;11.258;2022-08-30T06:25:39;95947.00;;;20.76;79.69
25526;BME280;13424;48.424;11.258;2022-08-30T06:28:05;95947.25;;;20.61;79.57
25526;BME280;13424;48.424;11.258;2022-08-30T06:30:33;95942.69;;;20.75;79.01
25526;BME280;13424;48.424;11.258;2022-08-30T06:33:01;95948.88;;;20.62;79.64
25526;BME280;13424;48.424;11.258;2022-08-30T06:35:27;95951.06;;;20.79;79.34
25526;BME280;13424;48.424;11.258;2022-08-30T06:37:55;95949.72;;;20.76;78.86
25526;BME280;13424;48.424;11.258;2022-08-30T06:40:21;95953.97;;;20.82;78.85
25526;BME280;13424;48.424;11.258;2022-08-30T06:42:47;95953.03;;;21.38;76.48
25526;BME280;13424;48.424;11.258;2022-08-30T06:45:14;95947.53;;;21.25;78.41
25526;BME280;13424;48.424;11.258;2022-08-30T06:47:41;95951.88;;;21.26;77.29
25526;BME280;13424;48.424;11.258;2022-08-30T06:50:09;95955.75;;;21.38;77.63
25526;BME280;13424;48.424;11.258;2022-08-30T06:52:37;95953.25;;;21.42;78.36
25526;BME280;13424;48.424;11.258;2022-08-30T06:55:04;95950.13;;;21.76;76.09
25526;BME280;13424;48.424;11.258;2022-08-30T06:57:31;95953.56;;;22.09;75.91
25526;BME280;13424;48.424;11.258;2022-08-30T06:59:58;95951.13;;;21.94;75.56
25526;BME280;13424;48.424;11.258;2022-08-30T07:02:25;95959.38;;;22.16;75.61
25526;BME280;13424;48.424;11.258;2022-08-30T07:05:48;95958.97;;;22.23;75.67
25526;BME280;13424;48.424;11.258;2022-08-30T07:08:16;95957.28;;;22.49;74.38
25526;BME280;13424;48.424;11.258;2022-08-30T07:10:42;95951.72;;;22.32;75.32
25526;BME280;13424;48.424;11.258;2022-08-30T07:13:09;95960.16;;;22.44;74.77
25526;BME280;13424;48.424;11.258;2022-08-30T07:15:40;95961.34;;;22.74;73.91
25526;BME280;13424;48.424;11.258;2022-08-30T07:18:06;95960.81;;;22.86;73.95
25526;BME280;13424;48.424;11.258;2022-08-30T07:20:50;95955.25;;;23.13;72.99
25526;BME280;13424;48.424;11.258;2022-08-30T07:23:16;95960.25;;;23.20;72.61
25526;BME280;13424;48.424;11.258;2022-08-30T07:25:42;95954.41;;;23.35;71.96
25526;BME280;13424;48.424;11.258;2022-08-30T07:28:09;95957.56;;;23.29;72.17
25526;BME280;13424;48.424;11.258;2022-08-30T07:30:37;95951.47;;;23.54;71.36
25526;BME280;13424;48.424;11.258;2022-08-30T07:33:05;95959.22;;;23.70;70.86
25526;BME280;13424;48.424;11.258;2022-08-30T07:35:32;95955.00;;;23.94;70.58
25526;BME280;13424;48.424;11.258;2022-08-30T07:37:58;95959.19;;;24.09;70.45
25526;BME280;13424;48.424;11.258;2022-08-30T07:40:25;95954.47;;;24.41;69.46
25526;BME280;13424;48.424;11.258;2022-08-30T07:42:51;95955.41;;;24.19;73.04
25526;BME280;13424;48.424;11.258;2022-08-30T07:45:18;95948.09;;;24.54;70.69
25526;BME280;13424;48.424;11.258;2022-08-30T07:47:44;95953.69;;;25.10;68.70
25526;BME280;13424;48.424;11.258;2022-08-30T07:50:11;95955.47;;;24.97;68.59
25526;BME280;13424;48.424;11.258;2022-08-30T07:52:37;95959.63;;;24.51;69.96
25526;BME280;13424;48.424;11.258;2022-08-30T07:55:07;95948.38;;;24.96;68.98
25526;BME280;13424;48.424;11.258;2022-08-30T07:57:33;95959.16;;;24.92;68.74
25526;BME280;13424;48.424;11.258;2022-08-30T08:00:00;95958.34;;;25.09;68.68
25526;BME280;13424;48.424;11.258;2022-08-30T08:02:26;95952.72;;;25.23;68.51
25526;BME280;13424;48.424;11.258;2022-08-30T08:04:53;95959.94;;;25.01;68.03
25526;BME280;13424;48.424;11.258;2022-08-30T08:07:18;95961.53;;;25.28;68.41
25526;BME280;13424;48.424;11.258;2022-08-30T08:09:44;95958.81;;;25.28;67.32
25526;BME280;13424;48.424;11.258;2022-08-30T08:12:10;95955.88;;;25.33;67.03
25526;BME280;13424;48.424;11.258;2022-08-30T08:14:36;95953.09;;;25.51;68.96
25526;BME280;13424;48.424;11.258;2022-08-30T08:17:04;95963.41;;;25.54;67.54
25526;BME280;13424;48.424;11.258;2022-08-30T08:19:30;95958.22;;;25.61;65.92
25526;BME280;13424;48.424;11.258;2022-08-30T08:21:56;95964.78;;;26.36;64.76
25526;BME280;13424;48.424;11.258;2022-08-30T08:24:28;95965.63;;;26.07;65.81
25526;BME280;13424;48.424;11.258;2022-08-30T08:30:42;95967.06;;;26.05;65.74
25526;BME280;13424;48.424;11.258;2022-08-30T08:33:08;95966.38;;;26.37;64.04
25526;BME280;13424;48.424;11.258;2022-08-30T08:35:39;95967.72;;;26.31;65.23
25526;BME280;13424;48.424;11.258;2022-08-30T08:38:05;95966.81;;;26.69;65.01
25526;BME280;13424;48.424;11.258;2022-08-30T08:41:05;95966.06;;;27.02;61.87
25526;BME280;13424;48.424;11.258;2022-08-30T08:43:35;95967.16;;;26.67;64.86
25526;BME280;13424;48.424;11.258;2022-08-30T08:46:29;95970.06;;;26.71;62.18
25526;BME280;13424;48.424;11.258;2022-08-30T08:49:04;95977.97;;;26.85;63.04
25526;BME280;13424;48.424;11.258;2022-08-30T08:51:35;95971.44;;;26.77;61.37
25526;BME280;13424;48.424;11.258;2022-08-30T08:54:50;95971.38;;;27.07;61.01
25526;BME280;13424;48.424;11.258;2022-08-30T08:57:17;95968.56;;;26.94;60.30
25526;BME280;13424;48.424;11.258;2022-08-30T08:59:44;95976.63;;;26.91;61.95
25526;BME280;13424;48.424;11.258;2022-08-30T09:02:26;95970.97;;;27.62;58.04
25526;BME280;13424;48.424;11.258;2022-08-30T09:05:00;95975.53;;;27.25;57.72
25526;BME280;13424;48.424;11.258;2022-08-30T09:07:42;95974.97;;;27.19;58.65
25526;BME280;13424;48.424;11.258;2022-08-30T09:10:11;95977.34;;;27.54;58.38
25526;BME280;13424;48.424;11.258;2022-08-30T09:12:43;95962.41;;;27.51;54.49
25526;BME280;13424;48.424;11.258;2022-08-30T09:15:21;95961.22;;;27.40;55.13
25526;BME280;13424;48.424;11.258;2022-08-30T09:18:04;95964.78;;;27.98;55.11
25526;BME280;13424;48.424;11.258;2022-08-30T09:20:35;95968.16;;;27.95;54.97
25526;BME280;13424;48.424;11.258;2022-08-30T09:23:23;95953.78;;;27.86;53.54
25526;BME280;13424;48.424;11.258;2022-08-30T09:26:06;95961.34;;;28.01;53.66
25526;BME280;13424;48.424;11.258;2022-08-30T09:28:48;95958.25;;;27.91;56.19
25526;BME280;13424;48.424;11.258;2022-08-30T09:31:26;95955.16;;;28.17;55.88
25526;BME280;13424;48.424;11.258;2022-08-30T09:34:08;95947.94;;;28.12;55.94
25526;BME280;13424;48.424;11.258;2022-08-30T09:36:50;95949.47;;;27.97;54.66
25526;BME280;13424;48.424;11.258;2022-08-30T09:39:34;95946.03;;;28.00;53.60
25526;BME280;13424;48.424;11.258;2022-08-30T09:42:14;95942.06;;;27.52;52.94
25526;BME280;13424;48.424;11.258;2022-08-30T09:44:44;95938.28;;;27.90;53.03
25526;BME280;13424;48.424;11.258;2022-08-30T09:47:28;95936.66;;;27.77;52.33
25526;BME280;13424;48.424;11.258;2022-08-30T09:50:14;95949.78;;;27.96;53.87
25526;BME280;13424;48.424;11.258;2022-08-30T09:55:49;95936.00;;;28.04;54.62
25526;BME280;13424;48.424;11.258;2022-08-30T10:01:52;95926.03;;;27.88;53.75
25526;BME280;13424;48.424;11.258;2022-08-30T10:05:02;95927.25;;;28.51;52.77
25526;BME280;13424;48.424;11.258;2022-08-30T10:07:57;95930.25;;;28.46;54.08
25526;BME280;13424;48.424;11.258;2022-08-30T10:10:54;95919.94;;;28.43;52.61
25526;BME280;13424;48.424;11.258;2022-08-30T10:14:08;95921.84;;;29.07;51.04
25526;BME280;13424;48.424;11.258;2022-08-30T10:19:55;95917.25;;;28.31;51.87
25526;BME280;13424;48.424;11.258;2022-08-30T10:22:41;95910.97;;;28.71;51.68
25526;BME280;13424;48.424;11.258;2022-08-30T10:28:21;95900.13;;;29.02;49.38
25526;BME280;13424;48.424;11.258;2022-08-30T10:31:06;95906.56;;;28.82;50.43
25526;BME280;13424;48.424;11.258;2022-08-30T10:33:44;95890.38;;;29.05;49.45
25526;BME280;13424;48.424;11.258;2022-08-30T10:36:13;95897.03;;;28.76;50.17
25526;BME280;13424;48.424;11.258;2022-08-30T10:38:51;95896.72;;;29.37;50.60
25526;BME280;13424;48.424;11.258;2022-08-30T10:49:38;95886.47;;;30.32;45.63
25526;BME280;13424;48.424;11.258;2022-08-30T10:52:13;95888.25;;;29.73;48.43
25526;BME280;13424;48.424;11.258;2022-08-30T10:54:53;95883.28;;;28.76;51.75
25526;BME280;13424;48.424;11.258;2022-08-30T10:57:20;95880.53;;;29.47;48.87
25526;BME280;13424;48.424;11.258;2022-08-30T11:00:00;95884.72;;;29.13;48.47
25526;BME280;13424;48.424;11.258;2022-08-30T11:02:53;95883.44;;;29.23;47.94
25526;BME280;13424;48.424;11.258;2022-08-30T11:14:44;95877.34;;;28.74;47.82
25526;BME280;13424;48.424;11.258;2022-08-30T11:17:31;95872.25;;;29.16;47.17
25526;BME280;13424;48.424;11.258;2022-08-30T11:20:03;95875.56;;;29.69;46.53
25526;BME280;13424;48.424;11.258;2022-08-30T11:22:36;95876.88;;;29.28;45.05
25526;BME280;13424;48.424;11.258;2022-08-30T11:25:15;95868.91;;;29.54;46.83
25526;BME280;13424;48.424;11.258;2022-08-30T11:28:02;95869.22;;;29.05;45.48
25526;BME280;13424;48.424;11.258;2022-08-30T11:35:50;95860.69;;;29.54;45.26
25526;BME280;13424;48.424;11.258;2022-08-30T11:52:42;95863.91;;;30.07;46.10
25526;BME280;13424;48.424;11.258;2022-08-30T12:04:06;95848.28;;;30.46;45.48
25526;BME280;13424;48.424;11.258;2022-08-30T12:09:11;95856.81;;;30.61;44.65
25526;BME280;13424;48.424;11.258;2022-08-30T12:15:03;95846.69;;;30.45;43.90
25526;BME280;13424;48.424;11.258;2022-08-30T12:17:52;95849.69;;;29.54;44.87
25526;BME280;13424;48.424;11.258;2022-08-30T12:20:49;95853.38;;;29.30;46.70
25526;BME280;13424;48.424;11.258;2022-08-30T12:24:21;95844.28;;;29.42;46.10
25526;BME280;13424;48.424;11.258;2022-08-30T12:26:51;95849.50;;;29.15;46.47
25526;BME280;13424;48.424;11.258;2022-08-30T12:29:28;95850.53;;;28.83;46.79
25526;BME280;13424;48.424;11.258;2022-08-30T12:32:01;95852.47;;;28.95;47.76
25526;BME280;13424;48.424;11.258;2022-08-30T12:37:26;95841.91;;;29.72;45.61
25526;BME280;13424;48.424;11.258;2022-08-30T12:43:00;95844.47;;;30.90;44.68
25526;BME280;13424;48.424;11.258;2022-08-30T12:45:42;95854.56;;;30.27;45.99
25526;BME280;13424;48.424;11.258;2022-08-30T12:48:16;95853.47;;;30.67;44.92
25526;BME280;13424;48.424;11.258;2022-08-30T12:50:57;95846.09;;;30.55;44.50
25526;BME280;13424;48.424;11.258;2022-08-30T12:53:40;95836.81;;;30.64;45.08
25526;BME280;13424;48.424;11.258;2022-08-30T12:56:15;95846.38;;;30.66;44.57
25526;BME280;13424;48.424;11.258;2022-08-30T12:58:57;95841.66;;;31.09;44.53
25526;BME280;13424;48.424;11.258;2022-08-30T13:01:43;95842.66;;;30.78;44.90
25526;BME280;13424;48.424;11.258;2022-08-30T13:04:22;95832.94;;;31.26;44.05
25526;BME280;13424;48.424;11.258;2022-08-30T13:06:56;95825.75;;;30.99;44.20
25526;BME280;13424;48.424;11.258;2022-08-30T13:11:57;95828.25;;;31.07;41.44
25526;BME280;13424;48.424;11.258;2022-08-30T13:14:38;95817.03;;;29.84;45.05
25526;BME280;13424;48.424;11.258;2022-08-30T13:17:25;95812.66;;;30.53;43.42
25526;BME280;13424;48.424;11.258;2022-08-30T13:22:41;95811.00;;;30.68;41.46
25526;BME280;13424;48.424;11.258;2022-08-30T13:26:10;95801.91;;;30.10;41.96
25526;BME280;13424;48.424;11.258;2022-08-30T13:29:00;95806.50;;;30.60;42.86
25526;BME280;13424;48.424;11.258;2022-08-30T13:31:29;95803.75;;;30.79;41.55
25526;BME280;13424;48.424;11.258;2022-08-30T13:33:56;95798.78;;;31.31;43.44
25526;BME280;13424;48.424;11.258;2022-08-30T13:36:32;95796.50;;;30.91;42.80
25526;BME280;13424;48.424;11.258;2022-08-30T13:38:59;95795.47;;;30.79;43.55
25526;BME280;13424;48.424;11.258;2022-08-30T13:41:27;95801.06;;;31.25;41.76
25526;BME280;13424;48.424;11.258;2022-08-30T13:43:53;95788.78;;;30.57;42.48
25526;BME280;13424;48.424;11.258;2022-08-30T13:46:21;95789.41;;;30.12;44.00
25526;BME280;13424;48.424;11.258;2022-08-30T13:49:06;95786.50;;;30.63;42.20
25526;BME280;13424;48.424;11.258;2022-08-30T13:51:34;95786.44;;;30.60;42.63
25526;BME280;13424;48.424;11.258;2022-08-30T13:54:00;95779.81;;;30.64;40.96
25526;BME280;13424;48.424;11.258;2022-08-30T13:56:30;95784.13;;;31.04;42.30
25526;BME280;13424;48.424;11.258;2022-08-30T13:59:01;95780.44;;;30.35;43.45
25526;BME280;13424;48.424;11.258;2022-08-30T14:01:28;95773.41;;;30.37;42.71
25526;BME280;13424;48.424;11.258;2022-08-30T14:03:55;95772.09;;;30.70;42.53
25526;BME280;13424;48.424;11.258;2022-08-30T14:10:19;95776.06;;;30.72;41.66
25526;BME280;13424;48.424;11.258;2022-08-30T14:12:46;95773.34;;;30.14;43.08
25526;BME280;13424;48.424;11.258;2022-08-30T14:15:12;95768.19;;;30.71;41.38
25526;BME280;13424;48.424;11.258;2022-08-30T14:17:38;95766.00;;;29.67;44.81
25526;BME280;13424;48.424;11.258;2022-08-30T14:20:05;95758.00;;;29.11;43.02
25526;BME280;13424;48.424;11.258;2022-08-30T14:22:32;95758.44;;;30.35;41.99
25526;BME280;13424;48.424;11.258;2022-08-30T14:24:58;95759.34;;;30.81;42.28
25526;BME280;13424;48.424;11.258;2022-08-30T14:27:28;95763.47;;;30.91;42.39
25526;BME280;13424;48.424;11.258;2022-08-30T14:29:54;95749.13;;;30.62;44.50
25526;BME280;13424;48.424;11.258;2022-08-30T14:32:21;95747.59;;;31.07;42.57
25526;BME280;13424;48.424;11.258;2022-08-30T14:34:47;95743.94;;;30.99;42.76
25526;BME280;13424;48.424;11.258;2022-08-30T14:37:13;95752.47;;;30.71;42.97
25526;BME280;13424;48.424;11.258;2022-08-30T14:39:48;95754.97;;;30.80;42.15
25526;BME280;13424;48.424;11.258;2022-08-30T14:42:14;95747.56;;;30.03;43.32
25526;BME280;13424;48.424;11.258;2022-08-30T14:44:40;95747.41;;;29.96;43.49
25526;BME280;13424;48.424;11.258;2022-08-30T14:47:06;95738.69;;;29.94;43.27
25526;BME280;13424;48.424;11.258;2022-08-30T14:49:33;95736.34;;;29.57;43.88
25526;BME280;13424;48.424;11.258;2022-08-30T14:52:00;95730.13;;;29.60;44.20
25526;BME280;13424;48.424;11.258;2022-08-30T14:54:29;95730.75;;;29.38;43.61